createdAt,value
2022-12-24T00:00:19.060Z,100389.69
2022-12-24T00:02:50.620Z,100388.38
2022-12-24T00:05:21.863Z,100387.47
2022-12-24T00:07:51.911Z,100395.00
2022-12-24T00:10:22.737Z,100405.75
2022-12-24T00:12:53.355Z,100370.91
2022-12-24T00:15:23.794Z,100391.13
2022-12-24T00:17:55.563Z,100395.28
2022-12-24T00:20:25.697Z,100412.38
2022-12-24T00:22:55.783Z,100405.38
2022-12-24T00:25:26.208Z,100407.16
2022-12-24T00:27:56.547Z,100411.28
2022-12-24T00:30:26.758Z,100416.81
2022-12-24T00:32:58.713Z,100418.25
2022-12-24T00:35:29.872Z,100245.34
2022-12-24T00:38:00.006Z,100420.06
2022-12-24T00:40:31.330Z,100248.94
2022-12-24T00:43:01.310Z,100413.78
2022-12-24T00:45:31.109Z,100422.59
2022-12-24T00:48:02.647Z,100420.81
2022-12-24T00:50:32.550Z,100436.75
2022-12-24T00:53:02.164Z,100443.47
2022-12-24T00:55:32.711Z,100404.69
2022-12-24T00:58:02.759Z,100483.91
2022-12-24T01:00:33.177Z,100446.50
2022-12-24T01:03:09.093Z,100459.28
2022-12-24T01:05:38.614Z,100463.31
2022-12-24T01:08:09.276Z,100469.31
2022-12-24T01:10:39.987Z,100472.06
2022-12-24T01:13:12.777Z,100476.69
2022-12-24T01:15:42.948Z,100481.81
2022-12-24T01:18:14.755Z,100477.00
2022-12-24T01:20:45.141Z,100496.78
2022-12-24T01:23:17.751Z,100493.22
2022-12-24T01:25:48.978Z,100496.03
2022-12-24T01:28:21.531Z,100499.19
2022-12-24T01:30:52.436Z,100379.25
2022-12-24T01:33:24.439Z,100497.56
2022-12-24T01:35:54.698Z,100513.47
2022-12-24T01:38:25.170Z,100460.78
2022-12-24T01:41:12.851Z,100510.34
2022-12-24T01:43:42.827Z,100511.41
2022-12-24T01:46:18.425Z,100348.78
2022-12-24T01:48:51.867Z,100497.06
2022-12-24T01:51:29.278Z,100518.41
2022-12-24T01:54:03.821Z,100528.16
2022-12-24T01:56:37.562Z,100528.34
2022-12-24T01:59:11.890Z,100482.00
2022-12-24T02:01:42.692Z,100535.66
2022-12-24T02:04:21.688Z,100549.81
2022-12-24T02:06:52.692Z,100548.59
2022-12-24T02:09:23.945Z,100551.38
2022-12-24T02:11:54.479Z,100561.97
2022-12-24T02:14:28.394Z,100560.16
2022-12-24T02:17:05.370Z,100560.00
2022-12-24T02:20:11.080Z,100564.84
2022-12-24T02:23:00.213Z,100568.16
2022-12-24T02:25:45.823Z,100572.28
2022-12-24T02:28:29.545Z,100562.28
2022-12-24T02:31:08.451Z,100569.22
2022-12-24T02:33:45.359Z,100567.84
2022-12-24T02:36:25.216Z,100570.88
2022-12-24T02:39:02.813Z,100575.72
2022-12-24T02:41:50.318Z,100587.84
2022-12-24T02:44:24.163Z,100586.25
2022-12-24T02:46:58.563Z,100583.06
2022-12-24T02:49:28.946Z,100567.63
2022-12-24T02:51:59.844Z,100585.59
2022-12-24T02:54:31.652Z,100571.66
2022-12-24T02:57:20.695Z,100592.00
2022-12-24T03:00:02.778Z,100590.97
2022-12-24T03:02:49.779Z,100588.78
2022-12-24T03:05:29.580Z,100595.06
2022-12-24T03:08:06.272Z,100597.09
2022-12-24T03:10:44.202Z,100593.91
2022-12-24T03:13:17.610Z,100591.06
2022-12-24T03:15:49.141Z,100594.31
2022-12-24T03:18:23.951Z,100558.78
2022-12-24T03:21:01.872Z,100609.75
2022-12-24T03:23:31.883Z,100605.66
2022-12-24T03:26:06.486Z,100604.56
2022-12-24T03:28:38.859Z,100575.34
2022-12-24T03:31:12.943Z,100595.78
2022-12-24T03:33:46.461Z,100544.22
2022-12-24T03:36:18.649Z,100607.75
2022-12-24T03:38:48.637Z,100606.63
2022-12-24T03:41:20.562Z,100612.44
2022-12-24T03:43:50.889Z,100615.25
2022-12-24T03:46:23.364Z,100607.94
2022-12-24T03:48:57.453Z,100611.22
2022-12-24T03:51:27.611Z,100598.25
2022-12-24T03:53:58.432Z,100610.47
2022-12-24T03:56:28.583Z,100642.19
2022-12-24T03:58:59.283Z,100632.09
2022-12-24T04:01:28.910Z,100629.16
2022-12-24T04:04:02.467Z,100632.47
2022-12-24T04:06:32.648Z,100623.72
2022-12-24T04:09:06.103Z,100631.00
2022-12-24T04:11:35.646Z,100638.66
2022-12-24T04:14:06.389Z,100627.78
2022-12-24T04:16:36.282Z,100640.66
2022-12-24T04:19:08.304Z,100644.81
2022-12-24T04:21:38.206Z,100637.94
2022-12-24T04:24:09.590Z,100642.56
2022-12-24T04:26:39.470Z,100640.59
2022-12-24T04:29:09.416Z,100645.44
2022-12-24T04:31:40.189Z,100655.69
2022-12-24T04:34:11.678Z,100658.47
2022-12-24T04:36:41.506Z,100653.28
2022-12-24T04:39:11.312Z,100649.22
2022-12-24T04:41:41.205Z,100651.34
2022-12-24T04:44:11.613Z,100636.38
2022-12-24T04:46:42.296Z,100662.34
2022-12-24T04:49:14.148Z,100627.97
2022-12-24T04:51:45.046Z,100663.53
2022-12-24T04:54:14.926Z,100664.22
2022-12-24T04:56:44.731Z,100673.75
2022-12-24T04:59:14.492Z,100667.06
2022-12-24T05:01:45.271Z,100638.41
2022-12-24T05:04:16.619Z,100667.06
2022-12-24T05:06:46.733Z,100674.13
2022-12-24T05:09:16.733Z,100673.38
2022-12-24T05:11:46.826Z,100677.41
2022-12-24T05:14:16.717Z,100668.44
2022-12-24T05:16:46.910Z,100668.94
2022-12-24T05:19:18.511Z,100666.88
2022-12-24T05:22:09.658Z,100666.34
2022-12-24T05:24:57.137Z,100649.13
2022-12-24T05:27:27.450Z,100673.06
2022-12-24T05:30:00.754Z,100697.75
2022-12-24T05:32:30.879Z,100689.72
2022-12-24T05:35:02.758Z,100689.94
2022-12-24T05:37:35.434Z,100683.06
2022-12-24T05:40:06.332Z,100671.59
2022-12-24T05:42:35.888Z,100667.88
2022-12-24T05:45:06.934Z,100672.13
2022-12-24T05:47:42.875Z,100675.44
2022-12-24T05:50:14.840Z,100675.03
2022-12-24T05:52:44.366Z,100679.91
2022-12-24T05:55:14.229Z,100684.41
2022-12-24T05:57:44.597Z,100705.81
2022-12-24T06:00:15.529Z,100707.56
2022-12-24T06:02:46.920Z,100606.28
2022-12-24T06:05:18.895Z,100717.38
2022-12-24T06:07:49.076Z,100725.94
2022-12-24T06:10:20.129Z,100706.84
2022-12-24T06:12:50.065Z,100724.97
2022-12-24T06:15:24.082Z,100725.69
2022-12-24T06:17:54.603Z,100730.16
2022-12-24T06:20:26.547Z,100603.13
2022-12-24T06:22:56.400Z,100733.59
2022-12-24T06:25:26.785Z,100746.84
2022-12-24T06:27:56.640Z,100744.03
2022-12-24T06:30:26.380Z,100647.47
2022-12-24T06:32:55.648Z,100759.16
2022-12-24T06:35:26.285Z,100760.66
2022-12-24T06:37:56.127Z,100720.09
2022-12-24T06:40:25.870Z,100742.94
2022-12-24T06:42:54.855Z,100746.28
2022-12-24T06:45:24.800Z,100750.00
2022-12-24T06:47:54.438Z,100775.19
2022-12-24T06:50:25.602Z,100749.09
2022-12-24T06:52:55.641Z,100745.84
2022-12-24T06:55:25.238Z,100748.69
2022-12-24T06:57:56.783Z,100703.84
2022-12-24T07:00:26.148Z,100751.03
2022-12-24T07:02:55.913Z,100754.47
2022-12-24T07:05:26.924Z,100707.50
2022-12-24T07:07:56.886Z,100755.81
2022-12-24T07:10:26.368Z,100758.88
2022-12-24T07:12:56.019Z,100763.50
2022-12-24T07:15:25.380Z,100771.38
2022-12-24T07:17:55.109Z,100765.47
2022-12-24T07:20:31.158Z,100772.72
2022-12-24T07:23:03.385Z,100759.66
2022-12-24T07:25:32.873Z,100771.81
2022-12-24T07:28:06.231Z,100808.56
2022-12-24T07:30:35.691Z,100792.66
2022-12-24T07:33:05.926Z,100781.09
2022-12-24T07:35:38.844Z,100813.16
2022-12-24T07:38:11.886Z,100764.69
2022-12-24T07:40:41.850Z,100817.44
2022-12-24T07:43:12.192Z,100824.19
2022-12-24T07:45:45.112Z,100826.06
2022-12-24T07:48:15.505Z,100831.06
2022-12-24T07:50:50.410Z,100838.34
2022-12-24T07:53:20.542Z,100844.44
2022-12-24T07:55:50.122Z,100841.84
2022-12-24T07:58:20.316Z,100675.97
2022-12-24T08:00:50.873Z,100832.41
2022-12-24T08:03:22.424Z,100760.88
2022-12-24T08:05:54.116Z,100865.53
2022-12-24T08:08:24.023Z,100876.13
2022-12-24T08:10:54.309Z,100875.94
2022-12-24T08:13:24.620Z,100881.78
2022-12-24T08:15:54.389Z,100891.03
2022-12-24T08:18:24.528Z,100885.59
2022-12-24T08:20:55.407Z,100874.06
2022-12-24T08:23:25.101Z,100884.09
2022-12-24T08:25:54.650Z,100872.00
2022-12-24T08:28:26.529Z,100891.81
2022-12-24T08:30:56.597Z,100903.41
2022-12-24T08:33:26.639Z,100906.31
2022-12-24T08:35:59.237Z,100911.75
2022-12-24T08:38:29.387Z,100918.38
2022-12-24T08:40:59.591Z,100924.31
2022-12-24T08:43:29.299Z,100934.31
2022-12-24T08:46:04.332Z,100929.66
2022-12-24T08:48:34.593Z,100921.53
2022-12-24T08:51:10.615Z,100939.22
2022-12-24T08:53:41.293Z,100936.88
2022-12-24T08:56:14.015Z,100944.19
2022-12-24T08:58:43.713Z,100954.03
2022-12-24T09:01:15.576Z,100953.91
2022-12-24T09:03:46.841Z,100878.44
2022-12-24T09:06:18.716Z,100945.38
2022-12-24T09:08:51.216Z,100957.94
2022-12-24T09:11:23.677Z,100969.97
2022-12-24T09:13:53.522Z,100962.13
2022-12-24T09:16:23.588Z,100973.50
2022-12-24T09:18:53.053Z,100941.59
2022-12-24T09:21:24.362Z,100986.88
2022-12-24T09:23:54.679Z,100970.16
2022-12-24T09:26:26.380Z,100979.31
2022-12-24T09:28:55.972Z,100914.78
2022-12-24T09:31:27.223Z,100968.38
2022-12-24T09:33:57.250Z,100989.59
2022-12-24T09:36:28.295Z,100992.50
2022-12-24T09:38:58.382Z,100999.81
2022-12-24T09:41:42.661Z,100988.91
2022-12-24T09:44:26.678Z,100978.31
2022-12-24T09:47:02.989Z,100990.91
2022-12-24T09:49:41.678Z,100970.84
2022-12-24T09:52:17.928Z,101000.66
2022-12-24T09:54:57.090Z,100974.91
2022-12-24T09:57:31.651Z,101003.94
2022-12-24T10:00:01.912Z,100994.44
2022-12-24T10:02:40.089Z,101002.84
2022-12-24T10:05:15.517Z,100998.84
2022-12-24T10:07:56.231Z,101012.88
2022-12-24T10:10:32.492Z,101006.38
2022-12-24T10:13:17.197Z,100987.16
2022-12-24T10:15:53.838Z,101009.84
2022-12-24T10:18:31.090Z,101008.66
2022-12-24T10:21:06.604Z,100998.34
2022-12-24T10:23:42.996Z,101020.13
2022-12-24T10:26:17.164Z,101016.25
2022-12-24T10:28:50.166Z,101026.78
2022-12-24T10:31:24.930Z,101022.97
2022-12-24T10:33:59.838Z,101024.41
2022-12-24T10:36:31.467Z,101027.97
2022-12-24T10:39:03.744Z,101038.41
2022-12-24T10:41:36.864Z,101040.56
2022-12-24T10:44:07.132Z,101031.22
2022-12-24T10:47:31.149Z,101030.13
2022-12-24T10:50:20.032Z,101047.47
2022-12-24T10:52:52.700Z,101041.56
2022-12-24T10:55:28.930Z,101045.59
2022-12-24T10:58:03.200Z,101043.38
2022-12-24T11:00:36.588Z,101049.44
2022-12-24T11:03:23.524Z,101052.38
2022-12-24T11:06:10.939Z,100930.41
2022-12-24T11:08:43.914Z,101052.81
2022-12-24T11:11:17.465Z,101050.41
2022-12-24T11:13:56.615Z,101049.19
2022-12-24T11:16:30.162Z,101039.09
2022-12-24T11:19:05.463Z,101051.84
2022-12-24T11:21:39.368Z,101038.44
2022-12-24T11:24:21.036Z,101049.78
2022-12-24T11:26:52.933Z,101034.53
2022-12-24T11:29:24.111Z,101057.13
2022-12-24T11:32:11.642Z,100904.47
2022-12-24T11:34:45.208Z,101061.59
2022-12-24T11:37:19.011Z,101060.78
2022-12-24T11:39:50.123Z,101063.31
2022-12-24T11:42:32.496Z,101065.50
2022-12-24T11:45:05.721Z,101072.59
2022-12-24T11:47:36.921Z,100954.31
2022-12-24T11:50:26.442Z,101077.69
2022-12-24T11:53:03.899Z,101066.81
2022-12-24T11:55:43.660Z,101067.38
2022-12-24T11:58:25.114Z,100939.88
2022-12-24T12:01:03.520Z,101037.22
2022-12-24T12:03:37.869Z,101063.72
2022-12-24T12:06:18.469Z,100929.63
2022-12-24T12:08:51.978Z,101072.88
2022-12-24T12:11:24.304Z,101049.19
2022-12-24T12:13:59.985Z,101087.13
2022-12-24T12:17:00.120Z,101077.41
2022-12-24T12:19:38.453Z,101069.22
2022-12-24T12:22:22.434Z,101077.75
2022-12-24T12:24:57.239Z,101088.72
2022-12-24T12:27:33.599Z,101093.69
2022-12-24T12:30:07.907Z,101096.53
2022-12-24T12:32:44.857Z,101090.72
2022-12-24T12:35:27.544Z,101104.13
2022-12-24T12:38:02.505Z,101106.63
2022-12-24T12:40:57.171Z,101074.53
2022-12-24T12:43:43.397Z,101104.91
2022-12-24T12:46:25.411Z,101099.81
2022-12-24T12:49:11.963Z,101111.53
2022-12-24T12:51:50.830Z,101119.59
2022-12-24T12:54:44.544Z,101125.41
2022-12-24T12:57:18.788Z,101123.97
2022-12-24T12:59:54.643Z,101130.81
2022-12-24T13:02:46.366Z,101104.09
2022-12-24T13:05:43.022Z,101127.31
2022-12-24T13:08:31.353Z,101091.53
2022-12-24T13:11:16.278Z,101126.47
2022-12-24T13:14:19.760Z,101132.88
2022-12-24T13:17:27.863Z,101123.50
2022-12-24T13:20:22.856Z,101091.03
2022-12-24T13:22:55.633Z,101136.38
2022-12-24T13:25:31.100Z,101136.53
2022-12-24T13:28:32.750Z,101144.91
2022-12-24T13:31:26.343Z,101152.03
2022-12-24T13:34:00.508Z,101151.81
2022-12-24T13:37:03.332Z,101153.22
2022-12-24T13:40:04.832Z,101112.44
2022-12-24T13:43:07.788Z,101157.59
2022-12-24T13:45:48.235Z,100986.72
2022-12-24T13:48:34.167Z,101113.09
2022-12-24T13:51:20.539Z,101134.72
2022-12-24T13:53:51.307Z,101150.19
2022-12-24T13:56:28.408Z,101167.63
2022-12-24T13:59:13.736Z,101166.81
2022-12-24T14:01:47.374Z,101160.34
2022-12-24T14:04:27.725Z,101170.56
2022-12-24T14:07:01.675Z,101166.56
2022-12-24T14:09:34.453Z,101170.78
2022-12-24T14:12:34.264Z,101166.47
2022-12-24T14:15:37.364Z,101169.78
2022-12-24T14:18:08.201Z,101177.59
2022-12-24T14:20:39.037Z,101172.66
2022-12-24T14:23:24.613Z,101173.25
2022-12-24T14:25:55.205Z,101184.19
2022-12-24T14:28:33.319Z,101175.41
2022-12-24T14:31:03.911Z,101174.91
2022-12-24T14:33:36.717Z,101177.81
2022-12-24T14:36:09.009Z,101022.13
2022-12-24T14:38:41.581Z,101180.47
2022-12-24T14:41:27.607Z,101186.66
2022-12-24T14:44:09.602Z,101175.81
2022-12-24T14:46:48.074Z,101185.06
2022-12-24T14:49:41.865Z,101184.19
2022-12-24T14:52:45.953Z,101190.78
2022-12-24T14:55:32.987Z,101198.97
2022-12-24T14:58:32.217Z,101204.38
2022-12-24T15:01:19.540Z,101203.19
2022-12-24T15:04:01.799Z,101198.59
2022-12-24T15:06:36.601Z,101175.72
2022-12-24T15:09:06.490Z,101114.50
2022-12-24T15:11:37.038Z,101213.63
2022-12-24T15:14:07.615Z,101208.69
2022-12-24T15:16:38.732Z,101222.72
2022-12-24T15:19:21.122Z,101216.63
2022-12-24T15:21:51.460Z,101220.28
2022-12-24T15:24:29.913Z,101219.75
2022-12-24T15:27:02.965Z,101227.16
2022-12-24T15:29:35.246Z,101213.13
2022-12-24T15:32:07.074Z,101240.75
2022-12-24T15:34:39.328Z,101241.19
2022-12-24T15:37:17.862Z,101246.63
2022-12-24T15:39:56.099Z,101252.06
2022-12-24T15:42:27.720Z,101251.34
2022-12-24T15:45:02.317Z,101257.75
2022-12-24T15:47:38.667Z,101258.91
2022-12-24T15:50:17.848Z,101213.38
2022-12-24T15:53:21.096Z,101249.84
2022-12-24T15:55:41.447Z,101258.38
2022-12-24T15:58:27.148Z,101258.91
2022-12-24T16:01:23.596Z,101220.00
2022-12-24T16:04:00.462Z,101258.34
2022-12-24T16:06:59.328Z,101252.50
2022-12-24T16:09:43.883Z,101257.81
2022-12-24T16:12:21.652Z,101248.69
2022-12-24T16:14:54.554Z,101263.94
2022-12-24T16:17:26.864Z,101266.97
2022-12-24T16:20:02.264Z,101267.94
2022-12-24T16:22:35.476Z,101266.28
2022-12-24T16:25:25.652Z,101266.59
2022-12-24T16:28:00.085Z,101268.41
2022-12-24T16:30:30.237Z,101116.06
2022-12-24T16:33:00.122Z,101267.97
2022-12-24T16:35:36.994Z,101271.63
2022-12-24T16:38:09.997Z,101091.94
2022-12-24T16:40:40.234Z,101276.81
2022-12-24T16:43:28.324Z,101268.06
2022-12-24T16:46:02.730Z,101271.00
2022-12-24T16:48:36.368Z,101269.25
2022-12-24T16:51:07.634Z,101266.34
2022-12-24T16:53:37.282Z,101222.72
2022-12-24T16:56:11.909Z,101260.72
2022-12-24T16:58:41.989Z,101265.38
2022-12-24T17:01:12.564Z,101265.25
2022-12-24T17:03:42.072Z,101270.91
2022-12-24T17:06:13.878Z,101294.47
2022-12-24T17:08:43.627Z,101269.75
2022-12-24T17:11:14.017Z,101271.59
2022-12-24T17:13:46.666Z,101275.34
2022-12-24T17:16:17.553Z,101266.38
2022-12-24T17:18:52.220Z,101273.22
2022-12-24T17:21:23.609Z,101274.19
2022-12-24T17:23:54.298Z,101264.88
2022-12-24T17:26:24.539Z,101263.16
2022-12-24T17:28:55.303Z,101258.94
2022-12-24T17:31:26.045Z,101263.81
2022-12-24T17:33:58.970Z,101260.16
2022-12-24T17:36:30.214Z,101088.72
2022-12-24T17:39:00.243Z,101257.06
2022-12-24T17:41:29.996Z,101255.34
2022-12-24T17:44:00.301Z,101220.13
2022-12-24T17:46:32.304Z,101212.84
2022-12-24T17:49:02.913Z,101226.69
2022-12-24T17:51:33.788Z,101263.53
2022-12-24T17:54:04.153Z,101233.69
2022-12-24T17:56:33.436Z,101081.88
2022-12-24T17:59:03.309Z,101272.84
2022-12-24T18:01:33.155Z,101245.69
2022-12-24T18:04:04.833Z,101240.81
2022-12-24T18:06:36.265Z,101256.00
2022-12-24T18:09:06.695Z,101259.44
2022-12-24T18:11:38.790Z,101257.78
2022-12-24T18:14:09.229Z,101261.91
2022-12-24T18:16:39.919Z,101256.75
2022-12-24T18:19:11.971Z,101223.84
2022-12-24T18:21:43.728Z,101264.38
2022-12-24T18:24:14.531Z,101263.81
2022-12-24T18:26:45.908Z,101265.84
2022-12-24T18:29:16.799Z,101226.88
2022-12-24T18:31:46.629Z,101269.69
2022-12-24T18:34:17.526Z,101263.75
2022-12-24T18:36:54.761Z,101270.16
2022-12-24T18:39:25.417Z,101264.00
2022-12-24T18:41:57.591Z,101259.94
2022-12-24T18:44:27.380Z,101280.22
2022-12-24T18:46:57.122Z,101270.31
2022-12-24T18:49:27.265Z,101262.09
2022-12-24T18:51:59.465Z,101266.50
2022-12-24T18:54:32.092Z,101276.09
2022-12-24T18:57:02.048Z,101262.69
2022-12-24T18:59:31.710Z,101242.25
2022-12-24T19:02:01.986Z,101239.47
2022-12-24T19:04:33.359Z,101282.59
2022-12-24T19:07:04.781Z,101272.19
2022-12-24T19:09:34.389Z,101273.16
2022-12-24T19:12:06.960Z,101305.34
2022-12-24T19:14:37.919Z,101249.94
2022-12-24T19:17:08.430Z,101277.06
2022-12-24T19:19:38.140Z,101269.78
2022-12-24T19:22:09.316Z,101279.53
2022-12-24T19:24:38.885Z,101285.19
2022-12-24T19:27:09.172Z,101061.97
2022-12-24T19:29:42.139Z,101235.97
2022-12-24T19:32:12.222Z,101278.13
2022-12-24T19:34:41.964Z,101290.84
2022-12-24T19:37:13.006Z,101278.41
2022-12-24T19:39:43.541Z,101274.09
2022-12-24T19:42:15.004Z,101273.31
2022-12-24T19:44:46.000Z,101283.47
2022-12-24T19:47:16.571Z,101279.94
2022-12-24T19:49:46.722Z,101283.28
2022-12-24T19:52:18.525Z,101273.22
2022-12-24T19:54:48.275Z,101294.72
2022-12-24T19:57:18.007Z,101285.47
2022-12-24T19:59:48.066Z,101273.63
2022-12-24T20:02:17.901Z,101282.31
2022-12-24T20:04:48.297Z,101267.84
2022-12-24T20:07:19.698Z,101226.31
2022-12-24T20:09:49.446Z,101280.97
2022-12-24T20:12:19.475Z,101281.81
2022-12-24T20:14:48.931Z,101259.59
2022-12-24T20:17:18.786Z,101280.00
2022-12-24T20:19:49.689Z,101282.66
2022-12-24T20:22:23.179Z,101289.97
2022-12-24T20:24:53.603Z,101268.88
2022-12-24T20:27:25.788Z,101269.34
2022-12-24T20:29:55.315Z,101270.66
2022-12-24T20:32:25.423Z,101238.47
2022-12-24T20:34:57.295Z,101263.75
2022-12-24T20:37:28.314Z,101270.31
2022-12-24T20:39:58.270Z,101248.94
2022-12-24T20:42:27.638Z,101245.03
2022-12-24T20:44:57.739Z,101246.00
2022-12-24T20:47:28.422Z,101245.13
2022-12-24T20:49:58.668Z,101261.81
2022-12-24T20:52:29.914Z,101244.72
2022-12-24T20:55:00.133Z,101109.25
2022-12-24T20:57:35.932Z,101233.53
2022-12-24T21:00:10.601Z,101238.78
2022-12-24T21:02:40.320Z,101247.31
2022-12-24T21:05:11.079Z,101250.09
2022-12-24T21:07:43.672Z,101252.50
2022-12-24T21:10:15.360Z,101251.81
2022-12-24T21:12:51.916Z,101251.81
2022-12-24T21:15:25.606Z,101248.50
2022-12-24T21:17:55.691Z,101224.91
2022-12-24T21:20:30.468Z,101197.00
2022-12-24T21:23:02.591Z,101244.53
2022-12-24T21:25:32.233Z,101233.34
2022-12-24T21:28:02.683Z,101246.19
2022-12-24T21:30:32.559Z,101245.25
2022-12-24T21:33:02.044Z,101250.72
2022-12-24T21:35:32.082Z,101247.75
2022-12-24T21:38:07.243Z,101243.25
2022-12-24T21:40:37.187Z,101244.41
2022-12-24T21:43:09.015Z,101233.97
2022-12-24T21:45:42.575Z,101195.16
2022-12-24T21:48:27.241Z,101203.63
2022-12-24T21:50:58.345Z,101228.38
2022-12-24T21:53:47.484Z,101222.50
2022-12-24T21:56:17.736Z,101207.84
2022-12-24T21:58:49.147Z,101180.03
2022-12-24T22:01:20.122Z,101233.63
2022-12-24T22:03:51.914Z,101234.53
2022-12-24T22:06:39.135Z,101237.16
2022-12-24T22:09:33.223Z,101238.16
2022-12-24T22:12:03.872Z,101230.19
2022-12-24T22:14:35.405Z,101226.03
2022-12-24T22:17:06.427Z,101225.25
2022-12-24T22:19:37.311Z,101231.38
2022-12-24T22:22:07.616Z,101234.88
2022-12-24T22:24:39.891Z,101243.38
2022-12-24T22:27:10.406Z,101243.31
2022-12-24T22:29:42.031Z,101243.53
2022-12-24T22:32:13.857Z,101240.03
2022-12-24T22:34:45.680Z,101247.00
2022-12-24T22:37:16.404Z,101189.25
2022-12-24T22:39:48.179Z,101243.56
2022-12-24T22:42:18.079Z,101177.53
2022-12-24T22:44:50.471Z,101242.75
2022-12-24T22:47:22.103Z,101236.97
2022-12-24T22:49:55.012Z,101261.63
2022-12-24T22:52:26.551Z,101261.41
2022-12-24T22:54:58.853Z,101260.72
2022-12-24T22:57:31.634Z,101138.56
2022-12-24T23:00:02.252Z,101259.00
2022-12-24T23:02:32.405Z,101258.81
2022-12-24T23:05:17.091Z,101265.78
2022-12-24T23:07:47.322Z,101261.09
2022-12-24T23:10:18.579Z,101261.84
2022-12-24T23:13:12.784Z,101265.63
2022-12-24T23:15:45.634Z,101269.75
2022-12-24T23:18:17.814Z,101265.56
2022-12-24T23:20:49.482Z,101271.56
2022-12-24T23:23:21.547Z,101274.06
2022-12-24T23:25:54.406Z,101270.97
2022-12-24T23:28:28.206Z,101275.19
2022-12-24T23:31:00.796Z,101262.44
2022-12-24T23:33:32.346Z,101264.16
2022-12-24T23:36:04.239Z,101252.28
2022-12-24T23:38:34.499Z,101258.19
2022-12-24T23:41:09.869Z,101249.97
2022-12-24T23:43:40.831Z,101250.69
2022-12-24T23:46:15.258Z,101234.38
2022-12-24T23:48:47.328Z,101243.44
2022-12-24T23:51:19.997Z,101238.97
2022-12-24T23:53:50.790Z,101233.25
2022-12-24T23:56:25.756Z,101238.59
2022-12-24T23:58:56.128Z,101238.50
